Time,TemperatureF,DewpointF,PressureIn,WindDirection,WindDirectionDegrees,WindSpeedMPH,WindSpeedGustMPH,Humidity,HourlyPrecipIn,Conditions,Clouds,dailyrainin,SoftwareType,DateUTC
2013-02-10 00:01:00,39.4,22.0,28.17,NNW,333,0.7,3.6,50,0.00,,,0.00,WSDL version 423,2013-02-10 05:01:00,
2013-02-10 00:06:00,39.7,22.2,28.17,SE,140,1.2,3.6,49,0.00,,,0.00,WSDL version 423,2013-02-10 05:06:00,
2013-02-10 00:11:00,39.8,22.2,28.17,SSW,195,1.8,2.9,49,0.00,,,0.00,WSDL version 423,2013-02-10 05:11:00,
2013-02-10 00:16:00,39.9,22.3,28.17,East,84,1.2,2.7,49,0.00,,,0.00,WSDL version 423,2013-02-10 05:16:00,
2013-02-10 00:21:00,39.9,22.2,28.17,ESE,105,0.9,2.7,48,0.00,,,0.00,WSDL version 423,2013-02-10 05:21:00,
2013-02-10 00:26:00,40.0,22.3,28.17,SE,132,1.8,3.1,49,0.00,,,0.00,WSDL version 423,2013-02-10 05:26:00,
2013-02-10 00:31:00,40.1,22.0,28.17,ESE,120,1.4,3.1,48,0.00,,,0.00,WSDL version 423,2013-02-10 05:31:00,
2013-02-10 00:36:00,40.5,21.8,28.17,NW,305,1.5,2.7,46,0.00,,,0.00,WSDL version 423,2013-02-10 05:36:00,
2013-02-10 00:41:00,41.0,21.5,28.17,South,178,0.6,2.7,45,0.00,,,0.00,WSDL version 423,2013-02-10 05:41:00,
2013-02-10 00:46:00,41.4,21.7,28.17,South,190,1.0,2.7,45,0.00,,,0.00,WSDL version 423,2013-02-10 05:46:00,
2013-02-10 00:51:00,41.9,21.6,28.17,ENE,73,2.0,3.4,44,0.00,,,0.00,WSDL version 423,2013-02-10 05:51:00,
2013-02-10 00:56:00,42.1,21.7,28.17,NNE,28,0.9,3.4,44,0.00,,,0.00,WSDL version 423,2013-02-10 05:56:00,
2013-02-10 01:01:00,42.2,21.6,28.17,ESE,113,2.3,3.6,43,0.00,,,0.00,WSDL version 423,2013-02-10 06:01:00,
2013-02-10 01:06:00,42.6,21.7,28.17,NE,38,2.4,4.0,43,0.00,,,0.00,WSDL version 423,2013-02-10 06:06:00,
2013-02-10 01:11:00,42.7,21.3,28.17,WSW,258,1.6,4.0,42,0.00,,,0.00,WSDL version 423,2013-02-10 06:11:00,
2013-02-10 01:16:00,42.6,21.1,28.17,SSW,194,1.5,3.1,42,0.00,,,0.00,WSDL version 423,2013-02-10 06:16:00,
2013-02-10 01:21:00,42.8,20.8,28.17,South,190,1.5,3.1,41,0.00,,,0.00,WSDL version 423,2013-02-10 06:21:00,
2013-02-10 01:26:00,42.7,20.8,28.17,SSW,193,1.2,2.9,42,0.00,,,0.00,WSDL version 423,2013-02-10 06:26:00,
2013-02-10 01:31:00,42.4,20.4,28.17,SE,143,1.6,2.9,41,0.00,,,0.00,WSDL version 423,2013-02-10 06:31:00,
2013-02-10 01:36:00,42.4,20.9,28.17,ESE,113,1.8,2.9,42,0.00,,,0.00,WSDL version 423,2013-02-10 06:36:00,
2013-02-10 01:41:00,42.6,20.7,28.17,SW,218,1.1,2.9,41,0.00,,,0.00,WSDL version 423,2013-02-10 06:41:00,
2013-02-10 01:46:00,43.1,20.9,28.17,SE,130,2.6,4.0,41,0.00,,,0.00,WSDL version 423,2013-02-10 06:46:00,
2013-02-10 01:51:00,43.5,21.4,28.17,SE,143,1.8,4.0,41,0.00,,,0.00,WSDL version 423,2013-02-10 06:51:00,
2013-02-10 01:56:00,43.5,21.4,28.17,ENE,73,2.3,4.3,41,0.00,,,0.00,WSDL version 423,2013-02-10 06:56:00,
2013-02-10 02:01:00,43.8,21.6,28.20,SSE,155,2.0,5.6,41,0.00,,,0.00,WSDL version 423,2013-02-10 07:01:00,
2013-02-10 02:06:00,44.3,22.0,28.20,ESE,105,1.0,5.6,41,0.00,,,0.00,WSDL version 423,2013-02-10 07:06:00,
2013-02-10 02:11:00,44.4,22.2,28.20,SE,143,2.3,5.4,41,0.00,,,0.00,WSDL version 423,2013-02-10 07:11:00,
2013-02-10 02:16:00,44.4,22.2,28.20,SE,145,1.4,4.0,41,0.00,,,0.00,WSDL version 423,2013-02-10 07:16:00,
2013-02-10 02:21:00,44.3,22.1,28.20,NNE,23,1.8,3.4,41,0.00,,,0.00,WSDL version 423,2013-02-10 07:21:00,
2013-02-10 02:26:00,44.2,22.0,28.20,WSW,248,1.6,3.4,41,0.00,,,0.00,WSDL version 423,2013-02-10 07:26:00,
2013-02-10 02:31:00,44.2,22.0,28.20,NE,40,1.7,3.4,41,0.00,,,0.00,WSDL version 423,2013-02-10 07:31:00,
2013-02-10 02:36:00,44.2,22.0,28.20,NE,39,1.8,2.7,41,0.00,,,0.00,WSDL version 423,2013-02-10 07:36:00,
2013-02-10 02:41:00,44.5,22.3,28.20,NE,45,1.8,3.1,41,0.00,,,0.00,WSDL version 423,2013-02-10 07:41:00,
2013-02-10 02:46:00,44.9,22.1,28.17,East,79,0.8,3.6,40,0.00,,,0.00,WSDL version 423,2013-02-10 07:46:00,
2013-02-10 02:51:00,45.0,22.3,28.17,SE,140,2.4,3.6,41,0.00,,,0.00,WSDL version 423,2013-02-10 07:51:00,
2013-02-10 02:56:00,44.7,22.5,28.17,South,190,1.5,3.6,41,0.00,,,0.00,WSDL version 423,2013-02-10 07:56:00,
2013-02-10 03:01:00,44.8,22.2,28.17,ESE,121,2.9,4.3,40,0.00,,,0.00,WSDL version 423,2013-02-10 08:01:00,
2013-02-10 03:06:00,45.3,22.4,28.17,NE,38,1.5,4.9,40,0.00,,,0.00,WSDL version 423,2013-02-10 08:06:00,
2013-02-10 03:11:00,45.2,22.3,28.17,NE,39,0.6,4.9,40,0.00,,,0.00,WSDL version 423,2013-02-10 08:11:00,
2013-02-10 03:16:00,45.1,22.4,28.17,SSW,205,3.0,6.0,40,0.00,,,0.00,WSDL version 423,2013-02-10 08:16:00,
2013-02-10 03:21:00,45.3,22.5,28.17,NNW,335,2.9,6.0,40,0.00,,,0.00,WSDL version 423,2013-02-10 08:21:00,
2013-02-10 03:26:00,45.9,23.0,28.17,West,263,1.9,5.4,40,0.00,,,0.00,WSDL version 423,2013-02-10 08:26:00,
2013-02-10 03:31:00,45.6,22.7,28.20,SW,220,1.7,3.6,40,0.00,,,0.00,WSDL version 423,2013-02-10 08:31:00,
2013-02-10 03:36:00,45.7,22.8,28.20,East,87,3.4,6.5,40,0.00,,,0.00,WSDL version 423,2013-02-10 08:36:00,
2013-02-10 03:41:00,46.1,23.1,28.20,NW,318,1.7,6.5,40,0.00,,,0.00,WSDL version 423,2013-02-10 08:41:00,
2013-02-10 03:46:00,46.0,23.0,28.20,West,263,2.1,3.6,40,0.00,,,0.00,WSDL version 423,2013-02-10 08:46:00,
2013-02-10 03:51:00,46.0,23.1,28.20,NE,55,1.2,2.9,40,0.00,,,0.00,WSDL version 423,2013-02-10 08:51:00,
2013-02-10 03:56:00,45.9,23.1,28.20,NNE,31,2.3,4.0,40,0.00,,,0.00,WSDL version 423,2013-02-10 08:56:00,
2013-02-10 04:01:00,45.6,22.7,28.20,West,280,2.1,4.0,40,0.00,,,0.00,WSDL version 423,2013-02-10 09:01:00,
2013-02-10 04:06:00,46.0,23.0,28.20,NNE,13,1.1,3.6,40,0.00,,,0.00,WSDL version 423,2013-02-10 09:06:00,
2013-02-10 04:11:00,45.9,23.0,28.20,WSW,245,1.5,3.6,40,0.00,,,0.00,WSDL version 423,2013-02-10 09:11:00,
2013-02-10 04:16:00,45.9,22.9,28.17,NNE,18,2.0,4.3,40,0.00,,,0.00,WSDL version 423,2013-02-10 09:16:00,
2013-02-10 04:21:00,46.2,23.2,28.17,NNW,340,2.6,4.3,40,0.00,,,0.00,WSDL version 423,2013-02-10 09:21:00,
2013-02-10 04:26:00,46.1,23.1,28.17,SSE,150,2.7,4.7,40,0.00,,,0.00,WSDL version 423,2013-02-10 09:26:00,
2013-02-10 04:31:00,46.0,23.1,28.20,South,177,1.4,4.7,40,0.00,,,0.00,WSDL version 423,2013-02-10 09:31:00,
2013-02-10 04:36:00,45.9,22.9,28.20,NE,35,1.8,3.6,40,0.00,,,0.00,WSDL version 423,2013-02-10 09:36:00,
2013-02-10 04:41:00,45.6,22.7,28.20,SW,233,1.4,3.6,40,0.00,,,0.00,WSDL version 423,2013-02-10 09:41:00,
2013-02-10 04:46:00,45.2,22.5,28.17,East,90,2.0,3.6,41,0.00,,,0.00,WSDL version 423,2013-02-10 09:46:00,
2013-02-10 04:51:00,44.9,22.3,28.17,WSW,243,2.2,3.8,40,0.00,,,0.00,WSDL version 423,2013-02-10 09:51:00,
2013-02-10 04:56:00,45.0,22.1,28.17,NW,318,2.0,3.8,40,0.00,,,0.00,WSDL version 423,2013-02-10 09:56:00,
2013-02-10 05:01:00,44.8,21.9,28.20,ENE,65,1.3,3.6,40,0.00,,,0.00,WSDL version 423,2013-02-10 10:01:00,
2013-02-10 05:06:00,45.0,22.0,28.20,North,360,2.0,4.0,40,0.00,,,0.00,WSDL version 423,2013-02-10 10:06:00,
2013-02-10 05:11:00,44.8,22.0,28.20,NE,40,0.6,4.0,40,0.00,,,0.00,WSDL version 423,2013-02-10 10:11:00,
2013-02-10 05:16:00,44.6,21.8,28.17,NNW,343,1.8,3.8,40,0.00,,,0.00,WSDL version 423,2013-02-10 10:16:00,
2013-02-10 05:21:00,44.5,21.7,28.17,South,180,0.9,4.0,40,0.00,,,0.00,WSDL version 423,2013-02-10 10:21:00,
2013-02-10 05:26:00,44.3,21.6,28.17,NW,320,1.5,4.0,40,0.00,,,0.00,WSDL version 423,2013-02-10 10:26:00,
2013-02-10 05:31:00,44.4,21.6,28.20,NE,56,0.8,3.8,40,0.00,,,0.00,WSDL version 423,2013-02-10 10:31:00,
2013-02-10 05:36:00,44.5,21.5,28.20,South,180,0.5,2.9,39,0.00,,,0.00,WSDL version 423,2013-02-10 10:36:00,
2013-02-10 05:41:00,44.5,21.3,28.20,NNW,340,2.0,2.9,39,0.00,,,0.00,WSDL version 423,2013-02-10 10:41:00,
2013-02-10 05:46:00,44.2,21.5,28.20,SE,125,1.8,2.9,40,0.00,,,0.00,WSDL version 423,2013-02-10 10:46:00,
2013-02-10 05:51:00,44.1,21.3,28.20,East,79,0.5,2.7,40,0.00,,,0.00,WSDL version 423,2013-02-10 10:51:00,
2013-02-10 05:56:00,43.8,21.0,28.20,West,270,1.9,3.1,40,0.00,,,0.00,WSDL version 423,2013-02-10 10:56:00,
2013-02-10 06:01:00,43.8,21.0,28.20,ESE,108,1.2,3.1,40,0.00,,,0.00,WSDL version 423,2013-02-10 11:01:00,
2013-02-10 06:06:00,43.4,20.7,28.20,NE,35,1.7,4.0,40,0.00,,,0.00,WSDL version 423,2013-02-10 11:06:00,
2013-02-10 06:11:00,43.2,20.5,28.20,SSE,158,1.2,4.0,40,0.00,,,0.00,WSDL version 423,2013-02-10 11:11:00,
2013-02-10 06:16:00,42.9,20.3,28.20,East,98,1.9,3.6,40,0.00,,,0.00,WSDL version 423,2013-02-10 11:16:00,
2013-02-10 06:21:00,42.8,20.2,28.20,South,185,1.6,4.0,40,0.00,,,0.00,WSDL version 423,2013-02-10 11:21:00,
2013-02-10 06:26:00,42.7,20.3,28.20,SE,128,2.2,4.0,41,0.00,,,0.00,WSDL version 423,2013-02-10 11:26:00,
2013-02-10 06:31:00,42.7,20.5,28.20,NE,39,1.8,3.1,40,0.00,,,0.00,WSDL version 423,2013-02-10 11:31:00,
2013-02-10 06:36:00,42.8,20.2,28.20,SE,140,0.5,2.7,40,0.00,,,0.00,WSDL version 423,2013-02-10 11:36:00,
2013-02-10 06:41:00,43.0,20.3,28.20,SW,233,2.3,3.4,40,0.00,,,0.00,WSDL version 423,2013-02-10 11:41:00,
2013-02-10 06:46:00,43.3,20.6,28.17,SE,143,1.9,6.0,40,0.00,,,0.00,WSDL version 423,2013-02-10 11:46:00,
2013-02-10 06:51:00,43.2,20.5,28.17,ENE,70,0.9,6.0,40,0.00,,,0.00,WSDL version 423,2013-02-10 11:51:00,
2013-02-10 06:56:00,42.9,20.3,28.17,South,178,2.2,3.6,40,0.00,,,0.00,WSDL version 423,2013-02-10 11:56:00,
2013-02-10 07:01:00,42.8,20.2,28.20,NE,53,1.3,3.6,40,0.00,,,0.00,WSDL version 423,2013-02-10 12:01:00,
2013-02-10 07:06:00,42.8,20.2,28.20,SE,141,1.2,3.6,41,0.00,,,0.00,WSDL version 423,2013-02-10 12:06:00,
2013-02-10 07:11:00,42.7,20.4,28.20,North,8,1.9,3.8,40,0.00,,,0.00,WSDL version 423,2013-02-10 12:11:00,
2013-02-10 07:16:00,42.8,20.2,28.20,ESE,121,0.6,3.8,40,0.00,,,0.00,WSDL version 423,2013-02-10 12:16:00,
2013-02-10 07:21:00,42.8,20.2,28.20,ENE,65,1.8,2.9,40,0.00,,,0.00,WSDL version 423,2013-02-10 12:21:00,
2013-02-10 07:26:00,42.7,20.3,28.20,SSE,152,1.6,2.9,41,0.00,,,0.00,WSDL version 423,2013-02-10 12:26:00,
2013-02-10 07:31:00,42.6,20.5,28.20,ENE,73,2.2,3.4,41,0.00,,,0.00,WSDL version 423,2013-02-10 12:31:00,
2013-02-10 07:36:00,42.6,20.6,28.20,NNW,329,2.2,3.6,41,0.00,,,0.00,WSDL version 423,2013-02-10 12:36:00,
2013-02-10 07:41:00,42.6,20.6,28.20,NW,309,3.4,6.0,41,0.00,,,0.00,WSDL version 423,2013-02-10 12:41:00,
2013-02-10 07:46:00,42.9,20.6,28.20,SSE,158,2.8,6.0,41,0.00,,,0.00,WSDL version 423,2013-02-10 12:46:00,
2013-02-10 07:51:00,43.2,20.5,28.20,NW,323,2.8,5.6,40,0.00,,,0.00,WSDL version 423,2013-02-10 12:51:00,
2013-02-10 07:56:00,43.1,20.6,28.20,SE,138,2.5,5.6,41,0.00,,,0.00,WSDL version 423,2013-02-10 12:56:00,
2013-02-10 08:01:00,43.1,20.5,28.20,NE,37,2.5,5.6,40,0.00,,,0.00,WSDL version 423,2013-02-10 13:01:00,
2013-02-10 08:06:00,43.2,20.6,28.20,NE,43,2.6,4.0,41,0.00,,,0.00,WSDL version 423,2013-02-10 13:06:00,
2013-02-10 08:11:00,43.0,20.9,28.20,SSE,150,1.0,4.5,41,0.00,,,0.00,WSDL version 423,2013-02-10 13:11:00,
2013-02-10 08:16:00,43.1,20.9,28.20,SE,141,1.8,4.5,41,0.00,,,0.00,WSDL version 423,2013-02-10 13:16:00,
2013-02-10 08:21:00,43.1,21.0,28.20,ENE,70,2.5,4.0,41,0.00,,,0.00,WSDL version 423,2013-02-10 13:21:00,
2013-02-10 08:26:00,42.9,20.9,28.20,SSW,194,0.8,5.8,41,0.00,,,0.00,WSDL version 423,2013-02-10 13:26:00,
2013-02-10 08:31:00,42.8,20.8,28.17,NE,40,2.2,6.0,41,0.00,,,0.00,WSDL version 423,2013-02-10 13:31:00,
2013-02-10 08:36:00,42.9,20.9,28.17,SW,225,2.0,7.8,41,0.00,,,0.00,WSDL version 423,2013-02-10 13:36:00,
2013-02-10 08:41:00,43.4,20.8,28.17,NNE,18,2.9,7.8,40,0.00,,,0.00,WSDL version 423,2013-02-10 13:41:00,
2013-02-10 08:46:00,43.7,21.0,28.20,WSW,243,2.5,5.6,40,0.00,,,0.00,WSDL version 423,2013-02-10 13:46:00,
2013-02-10 08:51:00,43.7,21.0,28.20,NNE,17,1.2,3.8,40,0.00,,,0.00,WSDL version 423,2013-02-10 13:51:00,
2013-02-10 08:56:00,44.0,21.3,28.20,NE,53,2.7,5.8,40,0.00,,,0.00,WSDL version 423,2013-02-10 13:56:00,
2013-02-10 09:01:00,44.5,21.5,28.23,West,262,2.3,5.8,39,0.00,,,0.00,WSDL version 423,2013-02-10 14:01:00,
2013-02-10 09:06:00,44.9,21.9,28.23,NE,45,1.7,4.7,39,0.00,,,0.00,WSDL version 423,2013-02-10 14:06:00,
2013-02-10 09:11:00,45.2,22.0,28.23,WSW,256,1.3,3.4,39,0.00,,,0.00,WSDL version 423,2013-02-10 14:11:00,
2013-02-10 09:16:00,45.5,22.4,28.23,WSW,255,1.8,3.4,39,0.00,,,0.00,WSDL version 423,2013-02-10 14:16:00,
2013-02-10 09:21:00,45.8,22.5,28.23,West,262,1.6,3.6,39,0.00,,,0.00,WSDL version 423,2013-02-10 14:21:00,
2013-02-10 09:26:00,46.1,22.9,28.23,NW,315,1.6,4.5,39,0.00,,,0.00,WSDL version 423,2013-02-10 14:26:00,
2013-02-10 09:31:00,46.6,23.0,28.23,West,280,2.1,5.4,39,0.00,,,0.00,WSDL version 423,2013-02-10 14:31:00,
2013-02-10 09:36:00,47.0,23.3,28.23,NW,312,2.0,6.3,39,0.00,,,0.00,WSDL version 423,2013-02-10 14:36:00,
2013-02-10 09:41:00,47.1,22.8,28.23,WNW,293,2.1,6.3,38,0.00,,,0.00,WSDL version 423,2013-02-10 14:41:00,
2013-02-10 09:46:00,47.2,23.0,28.23,NNE,20,3.3,7.6,38,0.00,,,0.00,WSDL version 423,2013-02-10 14:46:00,
2013-02-10 09:51:00,47.3,23.0,28.23,West,278,2.0,7.6,38,0.00,,,0.00,WSDL version 423,2013-02-10 14:51:00,
2013-02-10 09:56:00,47.5,23.2,28.23,WNW,293,2.6,5.6,38,0.00,,,0.00,WSDL version 423,2013-02-10 14:56:00,
2013-02-10 10:01:00,47.7,23.3,28.23,North,360,2.0,5.6,38,0.00,,,0.00,WSDL version 423,2013-02-10 15:01:00,
2013-02-10 10:06:00,47.7,23.3,28.23,NNW,343,2.6,5.4,38,0.00,,,0.00,WSDL version 423,2013-02-10 15:06:00,
2013-02-10 10:11:00,47.6,23.2,28.23,ENE,65,2.5,5.4,38,0.00,,,0.00,WSDL version 423,2013-02-10 15:11:00,
2013-02-10 10:16:00,47.7,22.8,28.20,ESE,118,3.7,9.6,37,0.00,,,0.00,WSDL version 423,2013-02-10 15:16:00,
2013-02-10 10:21:00,47.7,22.8,28.20,NNW,335,2.7,9.6,38,0.00,,,0.00,WSDL version 423,2013-02-10 15:21:00,
2013-02-10 10:26:00,48.4,23.4,28.20,NE,53,2.1,5.4,37,0.00,,,0.00,WSDL version 423,2013-02-10 15:26:00,
2013-02-10 10:31:00,48.6,23.5,28.23,WNW,293,3.4,7.8,37,0.00,,,0.00,WSDL version 423,2013-02-10 15:31:00,
2013-02-10 10:36:00,48.6,23.5,28.23,NW,326,3.2,7.8,37,0.00,,,0.00,WSDL version 423,2013-02-10 15:36:00,
2013-02-10 10:41:00,48.6,23.5,28.23,NW,313,2.2,5.6,37,0.00,,,0.00,WSDL version 423,2013-02-10 15:41:00,
2013-02-10 10:46:00,48.7,23.6,28.20,NW,305,1.0,4.3,37,0.00,,,0.00,WSDL version 423,2013-02-10 15:46:00,
2013-02-10 10:51:00,48.9,23.8,28.20,NNE,13,1.2,4.0,37,0.00,,,0.00,WSDL version 423,2013-02-10 15:51:00,
2013-02-10 11:01:00,49.4,24.2,28.20,South,173,1.7,3.8,37,0.00,,,0.00,WSDL version 423,2013-02-10 16:01:00,
2013-02-10 11:06:00,49.6,24.4,28.20,West,263,2.2,3.8,37,0.00,,,0.00,WSDL version 423,2013-02-10 16:06:00,
2013-02-10 11:11:00,50.2,24.3,28.20,NE,43,2.6,4.0,36,0.00,,,0.00,WSDL version 423,2013-02-10 16:11:00,
2013-02-10 11:16:00,50.5,24.6,28.20,West,275,3.1,4.7,36,0.00,,,0.00,WSDL version 423,2013-02-10 16:16:00,
2013-02-10 11:21:00,50.9,24.7,28.20,NNW,343,2.9,6.0,36,0.00,,,0.00,WSDL version 423,2013-02-10 16:21:00,
2013-02-10 11:26:00,51.6,25.1,28.20,North,8,3.0,6.3,34,0.00,,,0.00,WSDL version 423,2013-02-10 16:26:00,
2013-02-10 11:31:00,52.1,24.4,28.20,WNW,298,5.4,8.5,33,0.00,,,0.00,WSDL version 423,2013-02-10 16:31:00,
2013-02-10 11:36:00,52.0,23.9,28.20,NW,310,3.4,8.5,32,0.00,,,0.00,WSDL version 423,2013-02-10 16:36:00,
2013-02-10 11:41:00,52.1,24.0,28.20,North,349,3.4,8.1,33,0.00,,,0.00,WSDL version 423,2013-02-10 16:41:00,
2013-02-10 11:46:00,52.4,23.9,28.20,NNW,338,3.4,7.6,32,0.00,,,0.00,WSDL version 423,2013-02-10 16:46:00,
2013-02-10 11:51:00,53.0,24.4,28.20,NW,307,3.8,7.6,33,0.00,,,0.00,WSDL version 423,2013-02-10 16:51:00,
2013-02-10 11:56:00,53.6,24.8,28.20,NW,318,2.5,6.3,32,0.00,,,0.00,WSDL version 423,2013-02-10 16:56:00,
2013-02-10 12:01:00,53.8,24.3,28.17,NNW,330,3.3,6.5,31,0.00,,,0.00,WSDL version 423,2013-02-10 17:01:00,
2013-02-10 12:06:00,53.3,23.5,28.17,WNW,301,3.1,6.5,31,0.00,,,0.00,WSDL version 423,2013-02-10 17:06:00,
2013-02-10 12:11:00,53.4,23.4,28.17,NW,323,3.5,7.4,30,0.00,,,0.00,WSDL version 423,2013-02-10 17:11:00,
2013-02-10 12:16:00,52.8,22.2,28.14,WNW,295,2.7,7.4,30,0.00,,,0.00,WSDL version 423,2013-02-10 17:16:00,
2013-02-10 12:21:00,52.3,21.4,28.14,South,172,3.7,6.5,30,0.00,,,0.00,WSDL version 423,2013-02-10 17:21:00,
2013-02-10 12:26:00,52.2,21.3,28.14,SE,130,3.3,6.5,30,0.00,,,0.00,WSDL version 423,2013-02-10 17:26:00,
2013-02-10 12:31:00,52.2,21.7,28.14,NNW,344,2.8,5.8,30,0.00,,,0.00,WSDL version 423,2013-02-10 17:31:00,
2013-02-10 12:36:00,52.5,22.0,28.14,WNW,301,2.9,8.9,30,0.00,,,0.00,WSDL version 423,2013-02-10 17:36:00,
2013-02-10 12:41:00,52.2,21.2,28.14,ENE,59,3.0,8.9,30,0.00,,,0.00,WSDL version 423,2013-02-10 17:41:00,
2013-02-10 12:46:00,52.0,21.4,28.14,NW,321,2.9,6.5,29,0.00,,,0.00,WSDL version 423,2013-02-10 17:46:00,
2013-02-10 12:51:00,52.0,21.9,28.14,WSW,255,3.5,10.1,31,0.00,,,0.00,WSDL version 423,2013-02-10 17:51:00,
2013-02-10 12:56:00,52.0,22.0,28.14,WNW,298,1.9,10.1,31,0.00,,,0.00,WSDL version 423,2013-02-10 17:56:00,
2013-02-10 13:01:00,52.0,22.3,28.14,WNW,283,2.9,4.7,31,0.00,,,0.00,WSDL version 423,2013-02-10 18:01:00,
2013-02-10 13:06:00,52.1,22.8,28.14,West,264,1.7,4.9,32,0.00,,,0.00,WSDL version 423,2013-02-10 18:06:00,
2013-02-10 13:11:00,52.3,23.9,28.14,WNW,288,3.1,5.8,34,0.00,,,0.00,WSDL version 423,2013-02-10 18:11:00,
2013-02-10 13:16:00,52.6,25.7,28.14,NNW,332,3.9,5.8,36,0.00,,,0.00,WSDL version 423,2013-02-10 18:16:00,
2013-02-10 13:21:00,52.8,26.6,28.14,SW,236,2.5,5.6,36,0.00,,,0.00,WSDL version 423,2013-02-10 18:21:00,
2013-02-10 13:26:00,53.2,27.0,28.14,NNW,328,2.3,7.4,36,0.00,,,0.00,WSDL version 423,2013-02-10 18:26:00,
2013-02-10 13:31:00,53.7,27.4,28.14,West,281,2.5,7.4,36,0.00,,,0.00,WSDL version 423,2013-02-10 18:31:00,
2013-02-10 13:36:00,53.5,27.5,28.14,WNW,303,3.6,6.0,37,0.00,,,0.00,WSDL version 423,2013-02-10 18:36:00,
2013-02-10 13:41:00,53.1,27.5,28.14,NW,305,2.0,6.0,37,0.00,,,0.00,WSDL version 423,2013-02-10 18:41:00,
2013-02-10 13:46:00,52.9,27.9,28.11,NW,308,3.2,5.8,38,0.00,,,0.00,WSDL version 423,2013-02-10 18:46:00,
2013-02-10 13:51:00,52.7,27.8,28.11,North,354,2.4,5.8,38,0.00,,,0.00,WSDL version 423,2013-02-10 18:51:00,
2013-02-10 13:56:00,52.5,27.6,28.11,North,358,4.7,8.7,38,0.00,,,0.00,WSDL version 423,2013-02-10 18:56:00,
2013-02-10 14:01:00,52.1,27.3,28.08,West,278,3.0,8.7,38,0.00,,,0.00,WSDL version 423,2013-02-10 19:01:00,
2013-02-10 14:06:00,52.1,27.5,28.08,WNW,287,2.3,7.4,39,0.00,,,0.00,WSDL version 423,2013-02-10 19:06:00,
2013-02-10 14:11:00,52.0,27.8,28.08,NW,326,2.3,7.4,39,0.00,,,0.00,WSDL version 423,2013-02-10 19:11:00,
2013-02-10 14:16:00,52.0,27.8,28.08,West,273,2.4,5.6,39,0.00,,,0.00,WSDL version 423,2013-02-10 19:16:00,
2013-02-10 14:21:00,51.9,27.9,28.08,NNW,330,2.1,4.9,40,0.00,,,0.00,WSDL version 423,2013-02-10 19:21:00,
2013-02-10 14:26:00,51.6,28.1,28.08,West,265,2.1,4.9,40,0.00,,,0.00,WSDL version 423,2013-02-10 19:26:00,
2013-02-10 14:31:00,51.4,28.1,28.08,NW,325,2.0,6.3,40,0.00,,,0.00,WSDL version 423,2013-02-10 19:31:00,
2013-02-10 14:36:00,51.4,28.5,28.08,WSW,257,2.4,6.3,41,0.00,,,0.00,WSDL version 423,2013-02-10 19:36:00,
2013-02-10 14:41:00,51.3,28.4,28.08,WNW,303,2.2,4.7,41,0.00,,,0.00,WSDL version 423,2013-02-10 19:41:00,
2013-02-10 14:46:00,51.2,28.6,28.11,West,273,2.5,3.8,42,0.00,,,0.00,WSDL version 423,2013-02-10 19:46:00,
2013-02-10 14:51:00,51.1,29.5,28.11,NW,318,2.4,4.0,44,0.00,,,0.00,WSDL version 423,2013-02-10 19:51:00,
2013-02-10 14:56:00,50.6,30.3,28.11,ESE,118,3.5,6.0,46,0.00,,,0.00,WSDL version 423,2013-02-10 19:56:00,
2013-02-10 15:01:00,49.8,31.5,28.08,NE,51,1.3,6.0,51,0.00,,,0.00,WSDL version 423,2013-02-10 20:01:00,
2013-02-10 15:06:00,48.7,32.4,28.08,NW,323,3.6,6.5,55,0.00,,,0.00,WSDL version 423,2013-02-10 20:06:00,
2013-02-10 15:16:00,47.2,34.3,28.05,WNW,298,2.2,7.8,61,0.00,,,0.00,WSDL version 423,2013-02-10 20:16:00,
2013-02-10 15:26:00,46.6,35.2,28.05,WSW,248,2.1,5.8,65,0.00,,,0.00,WSDL version 423,2013-02-10 20:26:00,
2013-02-10 15:36:00,46.6,34.9,28.05,NNE,29,3.6,6.3,65,0.00,,,0.00,WSDL version 423,2013-02-10 20:36:00,
2013-02-10 15:41:00,46.5,35.7,28.05,SSW,210,2.6,6.3,67,0.00,,,0.00,WSDL version 423,2013-02-10 20:41:00,
2013-02-10 15:46:00,46.3,36.2,28.05,NW,305,2.1,5.6,69,0.00,,,0.00,WSDL version 423,2013-02-10 20:46:00,
2013-02-10 15:56:00,45.7,37.1,28.05,SW,228,2.0,4.9,72,0.04,,,0.04,WSDL version 423,2013-02-10 20:56:00,
2013-02-10 16:01:00,45.5,37.3,28.05,ESE,116,2.4,4.3,73,0.04,,,0.04,WSDL version 423,2013-02-10 21:01:00,
2013-02-10 16:06:00,45.3,37.1,28.05,WSW,238,1.1,3.6,73,0.04,,,0.04,WSDL version 423,2013-02-10 21:06:00,
2013-02-10 16:11:00,45.1,37.4,28.05,WNW,293,1.3,5.6,76,0.04,,,0.04,WSDL version 423,2013-02-10 21:11:00,
2013-02-10 16:16:00,45.0,37.6,28.08,East,93,2.5,5.6,76,0.04,,,0.04,WSDL version 423,2013-02-10 21:16:00,
2013-02-10 16:21:00,44.8,37.9,28.08,North,360,1.5,6.5,77,0.08,,,0.08,WSDL version 423,2013-02-10 21:21:00,
2013-02-10 16:31:00,44.6,38.1,28.05,NW,318,2.4,3.6,80,0.12,,,0.12,WSDL version 423,2013-02-10 21:31:00,
2013-02-10 16:36:00,44.6,38.6,28.05,North,352,2.0,3.6,81,0.12,,,0.12,WSDL version 423,2013-02-10 21:36:00,
2013-02-10 16:46:00,44.2,39.3,28.05,WSW,256,2.2,7.8,83,0.16,,,0.16,WSDL version 423,2013-02-10 21:46:00,
2013-02-10 16:51:00,44.2,39.8,28.05,NNE,30,3.5,7.8,84,0.16,,,0.16,WSDL version 423,2013-02-10 21:51:00,
2013-02-10 16:56:00,44.2,39.3,28.05,North,3,3.0,7.8,82,0.12,,,0.16,WSDL version 423,2013-02-10 21:56:00,
2013-02-10 17:06:00,44.2,40.4,28.05,North,358,2.5,4.7,87,0.16,,,0.20,WSDL version 423,2013-02-10 22:06:00,
2013-02-10 17:11:00,44.1,40.0,28.05,WSW,253,1.0,4.7,86,0.21,,,0.25,WSDL version 423,2013-02-10 22:11:00,
2013-02-10 17:16:00,44.1,40.5,28.05,West,278,2.2,4.7,88,0.21,,,0.25,WSDL version 423,2013-02-10 22:16:00,
2013-02-10 17:21:00,44.2,40.8,28.05,NE,56,2.9,4.7,88,0.21,,,0.29,WSDL version 423,2013-02-10 22:21:00,
2013-02-10 17:26:00,44.2,40.9,28.05,NNE,28,1.8,4.0,89,0.17,,,0.29,WSDL version 423,2013-02-10 22:26:00,
2013-02-10 17:31:00,44.3,41.3,28.05,WSW,258,2.5,4.9,90,0.21,,,0.33,WSDL version 423,2013-02-10 22:31:00,
2013-02-10 17:36:00,44.4,41.6,28.05,NW,323,1.8,4.9,89,0.21,,,0.33,WSDL version 423,2013-02-10 22:36:00,
2013-02-10 17:41:00,44.4,41.6,28.05,SW,233,2.0,4.3,90,0.25,,,0.37,WSDL version 423,2013-02-10 22:41:00,
2013-02-10 17:46:00,44.5,42.0,28.08,WNW,293,2.0,4.3,91,0.21,,,0.37,WSDL version 423,2013-02-10 22:46:00,
2013-02-10 17:51:00,44.4,42.0,28.08,NNW,340,2.4,4.3,91,0.25,,,0.41,WSDL version 423,2013-02-10 22:51:00,
2013-02-10 17:56:00,44.5,42.0,28.08,SW,225,0.4,3.1,91,0.25,,,0.41,WSDL version 423,2013-02-10 22:56:00,
2013-02-10 18:01:00,44.6,41.8,28.08,WSW,248,1.4,2.9,89,0.25,,,0.45,WSDL version 423,2013-02-10 23:01:00,
2013-02-10 18:06:00,44.6,41.8,28.08,North,350,0.2,2.7,90,0.25,,,0.45,WSDL version 423,2013-02-10 23:06:00,
2013-02-10 18:11:00,44.6,41.9,28.08,NNW,332,0.8,2.5,90,0.24,,,0.49,WSDL version 423,2013-02-10 23:11:00,
2013-02-10 18:16:00,44.6,41.9,28.08,NE,37,0.7,2.5,90,0.24,,,0.49,WSDL version 423,2013-02-10 23:16:00,
2013-02-10 18:21:00,44.7,41.7,28.08,East,85,2.2,3.8,90,0.25,,,0.54,WSDL version 423,2013-02-10 23:21:00,
2013-02-10 18:26:00,45.0,42.8,28.08,ESE,108,3.0,5.6,92,0.25,,,0.54,WSDL version 423,2013-02-10 23:26:00,
2013-02-10 18:34:00,45.1,43.3,28.08,NE,48,1.6,5.6,93,0.25,,,0.58,WSDL version 423,2013-02-10 23:34:00,
2013-02-10 18:39:00,45.1,43.5,28.08,ENE,73,3.1,5.4,94,0.21,,,0.58,WSDL version 423,2013-02-10 23:39:00,
2013-02-10 18:48:00,45.3,43.8,28.08,North,353,0.6,6.5,94,0.25,,,0.62,WSDL version 423,2013-02-10 23:48:00,
2013-02-10 18:59:00,45.3,43.2,28.11,NE,45,1.9,2.7,92,0.17,,,0.62,WSDL version 423,2013-02-10 23:59:00,
2013-02-10 19:07:00,45.3,43.5,28.11,NW,321,2.2,2.7,93,0.17,,,0.62,WSDL version 423,2013-02-11 00:07:00,
2013-02-10 19:32:00,45.5,43.7,28.14,West,267,0.7,2.5,93,0.12,,,0.70,WSDL version 423,2013-02-11 00:32:00,
2013-02-10 20:26:00,46.0,44.5,28.14,SE,135,0.9,2.0,94,0.08,,,0.78,WSDL version 423,2013-02-11 01:26:00,
2013-02-10 20:33:00,46.0,44.5,28.11,SSW,203,1.8,2.5,94,0.08,,,0.78,WSDL version 423,2013-02-11 01:33:00,
2013-02-10 20:38:00,46.2,44.7,28.11,South,174,0.6,2.9,94,0.08,,,0.78,WSDL version 423,2013-02-11 01:38:00,
2013-02-10 20:43:00,46.2,44.7,28.08,SE,143,1.8,2.9,94,0.12,,,0.82,WSDL version 423,2013-02-11 01:43:00,
2013-02-10 20:52:00,46.6,45.4,28.08,SSE,166,1.8,4.0,96,0.08,,,0.82,WSDL version 423,2013-02-11 01:52:00,
2013-02-10 21:12:00,47.7,46.8,28.08,ESE,103,2.9,4.0,97,0.13,,,0.87,WSDL version 423,2013-02-11 02:12:00,
2013-02-10 21:17:00,47.8,47.0,28.08,SE,124,1.0,4.0,98,0.09,,,0.87,WSDL version 423,2013-02-11 02:17:00,
2013-02-10 21:22:00,47.8,47.2,28.08,SW,218,2.0,3.6,98,0.09,,,0.87,WSDL version 423,2013-02-11 02:22:00,
2013-02-10 21:27:00,47.8,47.2,28.08,SSW,208,2.0,3.6,98,0.09,,,0.87,WSDL version 423,2013-02-11 02:27:00,
2013-02-10 21:38:00,48.2,47.6,28.05,WSW,248,0.6,3.1,98,0.09,,,0.87,WSDL version 423,2013-02-11 02:38:00,
2013-02-10 21:43:00,48.1,47.5,28.05,SSE,153,1.8,2.9,98,0.09,,,0.91,WSDL version 423,2013-02-11 02:43:00,
2013-02-10 21:53:00,48.2,47.3,28.05,SE,125,0.7,2.7,97,0.09,,,0.91,WSDL version 423,2013-02-11 02:53:00,
2013-02-10 21:59:00,48.4,47.8,28.05,North,10,1.9,3.6,98,0.09,,,0.91,WSDL version 423,2013-02-11 02:59:00,
2013-02-10 22:04:00,48.7,48.1,28.05,SW,225,3.0,4.3,98,0.04,,,0.91,WSDL version 423,2013-02-11 03:04:00,
2013-02-10 22:14:00,48.7,48.4,28.05,West,262,1.7,5.4,99,0.04,,,0.91,WSDL version 423,2013-02-11 03:14:00,
2013-02-10 22:19:00,49.1,49.1,28.05,South,178,2.0,4.3,100,0.04,,,0.91,WSDL version 423,2013-02-11 03:19:00,
2013-02-10 22:24:00,49.2,49.2,28.05,SSW,198,3.0,4.3,100,0.04,,,0.91,WSDL version 423,2013-02-11 03:24:00,
2013-02-10 22:32:00,49.5,49.5,28.05,North,3,1.5,4.7,100,0.04,,,0.91,WSDL version 423,2013-02-11 03:32:00,
2013-02-10 22:41:00,49.5,49.5,28.05,ENE,58,1.4,3.8,100,0.00,,,0.91,WSDL version 423,2013-02-11 03:41:00,
2013-02-10 23:03:00,49.3,49.0,28.05,SSE,160,1.3,2.7,99,0.00,,,0.91,WSDL version 423,2013-02-11 04:03:00,
2013-02-10 23:08:00,49.3,49.0,28.05,NE,48,2.0,3.4,99,0.00,,,0.91,WSDL version 423,2013-02-11 04:08:00,
2013-02-10 23:13:00,49.3,49.0,28.05,ESE,110,0.9,3.4,99,0.00,,,0.91,WSDL version 423,2013-02-11 04:13:00,
2013-02-10 23:18:00,49.3,49.0,28.05,North,8,2.4,4.0,99,0.00,,,0.91,WSDL version 423,2013-02-11 04:18:00,
2013-02-10 23:23:00,49.5,49.5,28.05,NE,55,2.4,4.0,100,0.00,,,0.91,WSDL version 423,2013-02-11 04:23:00,
2013-02-10 23:28:00,49.3,49.3,28.02,NE,37,1.3,3.6,100,0.00,,,0.91,WSDL version 423,2013-02-11 04:28:00,
2013-02-10 23:33:00,49.3,49.3,28.02,ENE,63,1.5,3.1,100,0.00,,,0.91,WSDL version 423,2013-02-11 04:33:00,
2013-02-10 23:38:00,49.3,49.3,28.02,SW,231,1.3,3.1,100,0.00,,,0.91,WSDL version 423,2013-02-11 04:38:00,
2013-02-10 23:43:00,49.4,49.4,28.05,NNW,340,2.0,3.6,100,0.00,,,0.91,WSDL version 423,2013-02-11 04:43:00,
2013-02-10 23:48:00,49.6,49.6,28.05,WNW,301,2.0,3.6,100,0.00,,,0.91,WSDL version 423,2013-02-11 04:48:00,
2013-02-10 23:56:00,49.5,49.5,28.05,NE,39,2.6,3.8,100,0.00,,,0.91,WSDL version 423,2013-02-11 04:56:00,